Time;durP1;ratioP1;P1;durP2;ratioP2;P2;SDS_P1;SDS_P2;PMS_P1;PMS_P2;Temp;Humidity;BMP_temperature;BMP_pressure;BME280_temperature;BME280_humidity;BME280_pressure;Samples;Min_cycle;Max_cycle;Signal;HPM_P1;HPM_P2
2022/07/12 00:01:40;;;;;;;0.20;0.20;;;;;;;16.86;48.31;101050.84;5126940;28;20031;-68
2022/07/12 00:04:05;;;;;;;0.20;0.20;;;;;;;16.89;47.78;101044.66;5126834;28;20022;-68
2022/07/12 00:06:30;;;;;;;0.20;0.20;;;;;;;16.95;47.20;101042.75;5126613;28;20107;-67
2022/07/12 00:08:56;;;;;;;0.20;0.20;;;;;;;17.02;47.04;101042.59;5126768;28;20024;-68
2022/07/12 00:11:21;;;;;;;0.30;0.30;;;;;;;16.97;47.53;101037.47;5126914;28;20043;-67
2022/07/12 00:13:47;;;;;;;0.20;0.20;;;;;;;16.90;48.41;101047.25;5126734;28;20031;-67
2022/07/12 00:16:12;;;;;;;0.20;0.20;;;;;;;16.71;49.19;101042.47;5126621;28;20023;-67
2022/07/12 00:18:37;;;;;;;0.20;0.20;;;;;;;16.69;48.67;101041.63;5126813;28;20180;-68
2022/07/12 00:21:03;;;;;;;0.30;0.30;;;;;;;16.78;48.39;101045.81;5126747;28;20037;-68
2022/07/12 00:23:28;;;;;;;0.20;0.20;;;;;;;16.73;48.37;101029.31;5126896;28;20049;-67
2022/07/12 00:25:54;;;;;;;0.20;0.20;;;;;;;16.80;48.14;101048.38;5126420;28;20119;-68
2022/07/12 00:28:19;;;;;;;0.60;0.60;;;;;;;16.76;48.28;101041.50;5126353;28;20034;-68
2022/07/12 00:30:44;;;;;;;0.20;0.20;;;;;;;16.66;48.52;101054.81;5125626;28;20035;-68
2022/07/12 00:33:10;;;;;;;0.20;0.20;;;;;;;16.57;48.67;101048.03;5126441;28;20034;-67
2022/07/12 00:35:35;;;;;;;0.20;0.20;;;;;;;16.47;48.88;101046.50;5126408;28;20024;-68
2022/07/12 00:38:00;;;;;;;0.20;0.20;;;;;;;16.40;49.15;101047.56;5126377;28;20031;-68
2022/07/12 00:40:26;;;;;;;0.20;0.20;;;;;;;16.32;49.49;101053.84;5126150;28;20020;-68
2022/07/12 00:42:51;;;;;;;0.20;0.20;;;;;;;16.21;49.54;101046.19;5126211;28;20031;-68
2022/07/12 00:45:17;;;;;;;0.20;0.20;;;;;;;16.16;50.35;101052.44;5126231;28;20485;-68
2022/07/12 00:47:44;;;;;;;0.20;0.20;;;;;;;16.03;51.27;101054.47;5107642;28;20050;-68
2022/07/12 00:50:22;;;;;;;0.20;0.20;;;;;;;15.92;51.59;101055.53;5126089;28;20019;-68
2022/07/12 00:52:49;;;;;;;0.20;0.20;;;;;;;15.82;52.44;101057.47;5107605;28;20135;-68
2022/07/12 00:55:15;;;;;;;0.20;0.20;;;;;;;15.73;52.84;101055.03;5125963;28;20245;-68
2022/07/12 00:57:45;;;;;;;0.20;0.20;;;;;;;15.67;52.89;101045.53;5125703;28;20019;-69
2022/07/12 01:00:14;;;;;;;4.60;2.40;;;;;;;15.67;52.94;101049.91;5125961;28;20020;-68
2022/07/12 01:02:40;;;;;;;0.20;0.20;;;;;;;15.74;52.48;101046.28;5125850;28;20023;-68
2022/07/12 01:05:07;;;;;;;0.20;0.20;;;;;;;15.83;52.31;101051.31;5125933;28;20027;-68
2022/07/12 01:07:34;;;;;;;0.20;0.20;;;;;;;15.84;52.12;101047.84;5125489;28;20035;-69
2022/07/12 01:10:00;;;;;;;0.20;0.20;;;;;;;15.75;52.56;101053.22;5125935;28;20016;-68
2022/07/12 01:12:26;;;;;;;0.20;0.20;;;;;;;15.64;53.62;101057.84;5125498;28;20061;-68
2022/07/12 01:14:52;;;;;;;0.20;0.20;;;;;;;15.58;53.56;101050.94;5107305;28;20023;-68
2022/07/12 01:17:21;;;;;;;0.20;0.20;;;;;;;15.58;53.94;101056.19;5125334;28;20020;-68
2022/07/12 01:19:47;;;;;;;0.20;0.20;;;;;;;15.46;54.67;101052.06;5125568;28;20020;-68
2022/07/12 01:22:15;;;;;;;0.20;0.20;;;;;;;15.34;54.97;101054.00;5125604;28;20016;-68
2022/07/12 01:24:41;;;;;;;0.20;0.20;;;;;;;15.25;55.59;101056.78;5125402;28;20079;-67
2022/07/12 01:27:07;;;;;;;0.20;0.20;;;;;;;15.18;55.54;101052.53;5124932;28;20039;-68
2022/07/12 01:29:32;;;;;;;0.20;0.20;;;;;;;15.13;55.86;101059.63;5125287;28;20063;-68
2022/07/12 01:32:24;;;;;;;0.20;0.20;;;;;;;15.08;55.49;101057.09;5125352;28;20069;-69
2022/07/12 01:34:52;;;;;;;0.20;0.20;;;;;;;15.01;55.28;101058.94;5125166;28;20246;-67
2022/07/12 01:37:18;;;;;;;0.32;0.32;;;;;;;14.92;55.00;101051.25;5124983;28;20079;-67
2022/07/12 01:39:45;;;;;;;0.20;0.20;;;;;;;14.96;55.14;101063.34;5125095;28;20039;-68
2022/07/12 01:42:10;;;;;;;0.30;0.30;;;;;;;14.94;55.09;101060.78;5124849;28;20027;-67
2022/07/12 01:44:36;;;;;;;0.20;0.20;;;;;;;14.94;55.56;101057.28;5125313;28;20023;-68
2022/07/12 01:47:03;;;;;;;0.20;0.20;;;;;;;14.92;55.96;101061.69;5106496;28;20059;-67
2022/07/12 01:49:28;;;;;;;0.20;0.20;;;;;;;14.83;55.96;101071.41;5125072;28;20112;-67
2022/07/12 01:51:58;;;;;;;0.20;0.20;;;;;;;14.79;56.48;101069.69;5124873;28;20490;-68
2022/07/12 01:54:25;;;;;;;0.50;0.50;;;;;;;14.71;56.89;101068.94;5106161;28;20034;-67
2022/07/12 01:56:51;;;;;;;0.20;0.20;;;;;;;14.61;56.98;101068.22;5124580;28;20039;-67
2022/07/12 01:59:16;;;;;;;0.30;0.30;;;;;;;14.59;57.28;101065.63;5106466;28;20012;-67
2022/07/12 02:01:43;;;;;;;0.20;0.20;;;;;;;14.57;57.61;101067.38;5106294;28;20019;-67
2022/07/12 02:04:08;;;;;;;0.20;0.20;;;;;;;14.56;57.47;101073.50;5124814;28;20034;-68
2022/07/12 02:06:35;;;;;;;0.20;0.20;;;;;;;14.56;57.50;101073.50;5124453;28;20027;-68
2022/07/12 02:09:00;;;;;;;0.30;0.30;;;;;;;14.53;57.35;101075.28;5124904;28;20055;-68
2022/07/12 02:11:25;;;;;;;0.20;0.20;;;;;;;14.52;57.96;101084.88;5124503;28;20032;-67
2022/07/12 02:13:51;;;;;;;0.30;0.30;;;;;;;14.42;58.65;101078.94;5124354;28;20055;-68
2022/07/12 02:16:16;;;;;;;0.30;0.30;;;;;;;14.36;58.98;101074.63;5124469;28;20022;-68
2022/07/12 02:18:42;;;;;;;0.20;0.20;;;;;;;14.26;58.71;101065.22;5124425;28;20038;-67
2022/07/12 02:21:08;;;;;;;0.75;0.75;;;;;;;14.22;59.05;101066.13;5124370;28;20486;-70
2022/07/12 02:23:33;;;;;;;0.20;0.20;;;;;;;14.25;59.40;101071.31;5124246;28;20077;-68
2022/07/12 02:25:59;;;;;;;0.20;0.20;;;;;;;14.22;59.57;101072.22;5123949;28;20257;-68
2022/07/12 02:28:24;;;;;;;0.20;0.20;;;;;;;14.19;59.30;101071.38;5124068;28;20051;-68
2022/07/12 02:30:49;;;;;;;0.30;0.30;;;;;;;14.21;59.36;101073.13;5124324;28;20425;-68
2022/07/12 02:33:15;;;;;;;0.20;0.20;;;;;;;14.19;59.15;101074.88;5124265;28;20547;-68
2022/07/12 02:35:43;;;;;;;0.30;0.30;;;;;;;14.17;59.55;101071.41;5124192;28;20019;-68
2022/07/12 02:38:08;;;;;;;0.20;0.20;;;;;;;14.17;60.02;101067.94;5123906;28;20023;-68
2022/07/12 02:40:53;;;;;;;0.20;0.20;;;;;;;14.18;59.97;101065.31;5124234;28;20026;-67
2022/07/12 02:43:22;;;;;;;0.63;0.60;;;;;;;14.15;60.23;101054.91;5123757;28;20032;-68
2022/07/12 02:45:47;;;;;;;0.30;0.30;;;;;;;14.18;60.78;101065.31;5124069;28;20046;-68
2022/07/12 02:48:13;;;;;;;0.30;0.30;;;;;;;14.28;60.17;101073.88;5123618;28;20454;-68
2022/07/12 02:50:42;;;;;;;0.30;0.30;;;;;;;14.34;59.82;101078.16;5124001;28;20024;-68
2022/07/12 02:53:08;;;;;;;0.30;0.30;;;;;;;14.36;59.71;101077.25;5123318;28;20028;-68
2022/07/12 02:55:34;;;;;;;0.30;0.30;;;;;;;14.38;59.75;101083.34;5123799;28;20041;-68
2022/07/12 02:58:00;;;;;;;2.05;1.95;;;;;;;14.41;59.35;101087.63;5123611;28;20042;-68
2022/07/12 03:00:26;;;;;;;0.35;0.35;;;;;;;14.45;59.08;101084.13;5123765;28;20408;-68
2022/07/12 03:02:51;;;;;;;0.30;0.30;;;;;;;14.43;59.24;101080.66;5123719;28;20038;-67
2022/07/12 03:05:17;;;;;;;0.30;0.30;;;;;;;14.35;59.60;101072.94;5123826;28;20135;-68
2022/07/12 03:07:42;;;;;;;0.30;0.30;;;;;;;14.37;59.66;101086.84;5123643;28;20036;-68
2022/07/12 03:10:08;;;;;;;3.83;0.80;;;;;;;14.32;59.79;101080.81;5123741;28;20023;-68
2022/07/12 03:12:34;;;;;;;1.92;0.73;;;;;;;14.42;59.52;101078.94;5123513;28;20100;-68
2022/07/12 03:14:59;;;;;;;0.20;0.20;;;;;;;14.58;59.74;101082.19;5123799;28;20039;-68
2022/07/12 03:17:24;;;;;;;0.30;0.30;;;;;;;14.87;60.01;101087.91;5123600;28;20071;-68
2022/07/12 03:19:50;;;;;;;0.30;0.30;;;;;;;15.29;60.60;101089.84;5123715;28;20023;-68
2022/07/12 03:22:15;;;;;;;0.20;0.20;;;;;;;15.73;61.19;101086.44;5123626;28;20035;-68
2022/07/12 03:24:41;;;;;;;0.30;0.30;;;;;;;16.07;60.28;101090.19;5123528;28;20027;-68
2022/07/12 03:27:06;;;;;;;0.20;0.20;;;;;;;16.14;60.47;101089.16;5122786;28;20519;-68
2022/07/12 03:29:32;;;;;;;0.20;0.20;;;;;;;16.14;60.95;101085.66;5123675;28;20035;-68
2022/07/12 03:31:57;;;;;;;0.20;0.20;;;;;;;16.12;61.05;101095.34;5105157;28;20090;-67
2022/07/12 03:34:22;;;;;;;0.55;0.55;;;;;;;16.06;62.34;101098.91;5105226;28;20032;-69
2022/07/12 03:36:48;;;;;;;0.20;0.20;;;;;;;16.08;61.59;101092.78;5123343;28;20026;-68
2022/07/12 03:39:13;;;;;;;0.20;0.20;;;;;;;15.97;62.38;101081.63;5123401;28;20069;-68
2022/07/12 03:41:39;;;;;;;0.30;0.30;;;;;;;16.10;62.41;101096.19;5123519;28;20047;-68
2022/07/12 03:44:05;;;;;;;0.20;0.20;;;;;;;16.16;62.12;101100.47;5123245;28;20527;-67
2022/07/12 03:46:32;;;;;;;0.20;0.20;;;;;;;16.22;61.68;101091.59;5123235;28;20028;-68
2022/07/12 03:48:58;;;;;;;0.20;0.20;;;;;;;16.27;60.78;101089.75;5123457;28;20262;-68
2022/07/12 03:51:24;;;;;;;0.20;0.20;;;;;;;16.28;60.54;101082.78;5123361;28;20035;-67
2022/07/12 03:53:49;;;;;;;0.30;0.30;;;;;;;16.38;60.37;101091.28;5123279;28;20387;-68
2022/07/12 03:57:13;;;;;;;0.20;0.20;;;;;;;16.42;60.13;101096.41;5123257;28;20091;-68
2022/07/12 03:59:00;;;;;;;0.20;0.20;;;;;;;16.47;59.55;101093.69;5123001;28;20028;-68
2022/07/12 04:01:25;;;;;;;0.20;0.20;;;;;;;16.50;59.75;101093.66;5123269;28;20027;-68
2022/07/12 04:03:51;;;;;;;0.30;0.30;;;;;;;16.54;59.33;101095.28;5123223;28;20024;-67
2022/07/12 04:06:16;;;;;;;0.82;0.82;;;;;;;16.58;59.39;101086.44;5125026;28;20030;-67
2022/07/12 04:08:41;;;;;;;0.20;0.20;;;;;;;16.64;59.17;101095.94;5126878;28;20471;-67
2022/07/12 04:11:06;;;;;;;0.20;0.20;;;;;;;16.68;59.21;101101.97;5108590;28;20126;-68
2022/07/12 04:13:33;;;;;;;0.20;0.20;;;;;;;16.60;60.62;101103.00;5126764;28;20092;-67
2022/07/12 04:15:58;;;;;;;0.20;0.20;;;;;;;16.58;62.69;101107.41;5126885;28;20034;-67
2022/07/12 04:18:24;;;;;;;0.20;0.20;;;;;;;16.63;62.84;101103.84;5126754;28;20019;-68
2022/07/12 04:20:49;;;;;;;0.20;0.20;;;;;;;16.70;61.84;101108.91;5126882;28;20023;-68
2022/07/12 04:23:15;;;;;;;0.20;0.20;;;;;;;16.72;63.24;101114.13;5126845;28;20027;-68
2022/07/12 04:25:40;;;;;;;0.20;0.20;;;;;;;16.73;64.94;101118.47;5126360;28;20023;-68
2022/07/12 04:28:05;;;;;;;0.95;0.50;;;;;;;16.75;64.98;101110.56;5126539;28;20024;-67
2022/07/12 04:30:31;;;;;;;0.20;0.20;;;;;;;16.71;65.71;101120.25;5108074;28;20017;-68
2022/07/12 04:32:56;;;;;;;0.20;0.20;;;;;;;16.80;64.98;101114.81;5126591;28;20031;-68
2022/07/12 04:35:21;;;;;;;0.20;0.20;;;;;;;16.89;65.07;101104.97;5107993;28;20083;-70
2022/07/12 04:37:47;;;;;;;0.20;0.20;;;;;;;17.01;64.60;101104.72;5126298;28;20024;-67
2022/07/12 04:40:12;;;;;;;0.32;0.32;;;;;;;17.13;63.99;101100.94;5126524;28;20049;-68
2022/07/12 04:42:38;;;;;;;0.20;0.20;;;;;;;17.32;63.20;101109.22;5126229;28;20032;-70
2022/07/12 04:45:03;;;;;;;0.30;0.30;;;;;;;17.44;63.43;101107.19;5126285;28;20054;-69
2022/07/12 04:47:29;;;;;;;0.30;0.30;;;;;;;17.57;63.77;101094.59;5126178;28;20049;-71
2022/07/12 04:49:55;;;;;;;0.20;0.20;;;;;;;17.63;62.74;101090.94;5126319;28;20083;-67
2022/07/12 04:52:20;;;;;;;0.20;0.20;;;;;;;17.64;64.03;101093.50;5126119;28;20033;-67
2022/07/12 04:54:46;;;;;;;0.20;0.20;;;;;;;17.67;64.88;101090.81;5126286;28;20016;-67
2022/07/12 04:57:12;;;;;;;0.50;0.50;;;;;;;17.93;65.46;101089.22;5125833;28;20015;-72
2022/07/12 04:59:37;;;;;;;0.30;0.30;;;;;;;18.63;66.10;101093.34;5126375;28;20096;-72
2022/07/12 05:02:03;;;;;;;0.20;0.20;;;;;;;19.22;63.94;101077.47;5107802;28;20419;-72
2022/07/12 05:04:32;;;;;;;0.20;0.20;;;;;;;19.40;62.96;101081.22;5126408;28;20094;-70
2022/07/12 05:06:58;;;;;;;0.20;0.20;;;;;;;19.32;62.35;101092.03;5126099;28;20016;-70
2022/07/12 05:09:23;;;;;;;0.20;0.20;;;;;;;19.28;62.17;101093.88;5125846;28;20070;-69
2022/07/12 05:11:48;;;;;;;0.20;0.20;;;;;;;19.25;62.01;101093.16;5125783;28;20028;-70
2022/07/12 05:14:13;;;;;;;0.20;0.20;;;;;;;19.25;62.03;101095.78;5125914;28;20019;-70
2022/07/12 05:16:39;;;;;;;0.20;0.20;;;;;;;19.27;61.91;101101.84;5125160;28;20031;-70
2022/07/12 05:19:04;;;;;;;0.20;0.20;;;;;;;19.27;61.53;101105.34;5125740;28;20023;-70
2022/07/12 05:21:30;;;;;;;1.48;0.73;;;;;;;19.26;61.52;101093.09;5125799;28;20020;-70
2022/07/12 05:23:55;;;;;;;0.20;0.20;;;;;;;19.27;61.60;101099.22;5125620;28;20509;-71
2022/07/12 05:26:20;;;;;;;0.20;0.20;;;;;;;19.36;61.59;101098.88;5125326;28;20108;-68
2022/07/12 05:28:45;;;;;;;0.20;0.20;;;;;;;19.55;61.35;101096.47;5124850;28;20016;-68
2022/07/12 05:31:11;;;;;;;0.20;0.20;;;;;;;19.76;61.13;101104.53;5125215;28;20101;-68
2022/07/12 05:33:36;;;;;;;0.20;0.20;;;;;;;19.81;60.79;101102.59;5125485;28;20049;-68
2022/07/12 05:36:02;;;;;;;0.22;0.22;;;;;;;19.84;60.79;101103.41;5125270;28;20027;-68
2022/07/12 05:38:27;;;;;;;0.20;0.20;;;;;;;19.92;60.97;101098.72;5125163;28;20398;-68
2022/07/12 05:40:52;;;;;;;0.20;0.20;;;;;;;20.05;61.08;101109.66;5125223;28;20039;-68
2022/07/12 05:43:18;;;;;;;0.20;0.20;;;;;;;20.25;60.53;101105.44;5124901;28;20023;-68
2022/07/12 05:45:44;;;;;;;0.20;0.20;;;;;;;20.24;59.77;101107.19;5124969;28;20019;-68
2022/07/12 05:48:09;;;;;;;0.20;0.20;;;;;;;20.17;59.21;101109.25;5124736;28;20027;-68
2022/07/12 05:50:35;;;;;;;0.30;0.30;;;;;;;20.02;59.69;101115.94;5124530;28;20015;-68
2022/07/12 05:55:44;;;;;;;0.20;0.20;;;;;;;20.27;60.58;101111.53;5125009;28;20026;-68
2022/07/12 05:58:10;;;;;;;0.20;0.20;;;;;;;20.81;60.64;101103.28;5125005;28;20019;-68
2022/07/12 06:00:36;;;;;;;0.10;0.10;;;;;;;21.79;60.10;101096.56;5125186;28;20043;-68
2022/07/12 06:03:01;;;;;;;0.20;0.20;;;;;;;22.46;58.59;101105.84;5124721;28;20149;-68
2022/07/12 06:05:27;;;;;;;0.20;0.20;;;;;;;22.66;56.32;101093.50;5124771;28;20027;-68
2022/07/12 06:07:52;;;;;;;0.17;0.17;;;;;;;22.99;55.90;101087.44;5124665;28;20024;-68
2022/07/12 06:10:18;;;;;;;0.30;0.30;;;;;;;23.19;53.70;101088.25;5124085;28;20020;-68
2022/07/12 06:12:43;;;;;;;0.10;0.10;;;;;;;23.60;52.95;101088.84;5124411;28;20030;-68
2022/07/12 06:15:09;;;;;;;0.20;0.20;;;;;;;23.95;52.03;101099.34;5124852;28;20471;-68
2022/07/12 06:17:35;;;;;;;0.30;0.30;;;;;;;24.00;50.67;101093.78;5124203;28;20023;-68
2022/07/12 06:20:01;;;;;;;0.10;0.10;;;;;;;24.18;51.64;101094.63;5124358;28;20043;-68
2022/07/12 06:22:26;;;;;;;0.10;0.10;;;;;;;24.48;50.50;101090.31;5124254;28;20064;-73
2022/07/12 06:24:51;;;;;;;0.10;0.10;;;;;;;24.50;49.25;101088.44;5124501;28;20076;-74
2022/07/12 06:27:17;;;;;;;0.20;0.20;;;;;;;24.26;48.79;101081.78;5123910;28;20126;-70
2022/07/12 06:29:47;;;;;;;0.35;0.35;;;;;;;24.49;49.71;101095.53;5123733;28;20489;-72
2022/07/12 06:32:13;;;;;;;0.20;0.20;;;;;;;25.10;49.95;101080.63;5124435;28;20045;-68
2022/07/12 06:34:39;;;;;;;0.10;0.10;;;;;;;25.24;48.39;101083.31;5124445;28;20027;-68
2022/07/12 06:37:07;;;;;;;0.10;0.10;;;;;;;24.98;48.62;101087.53;5124073;28;20015;-67
2022/07/12 06:39:32;;;;;;;0.10;0.10;;;;;;;25.32;48.52;101087.31;5123770;28;20027;-67
2022/07/12 06:41:58;;;;;;;0.10;0.10;;;;;;;25.50;48.39;101078.22;5123997;28;20114;-67
2022/07/12 06:44:23;;;;;;;0.10;0.10;;;;;;;25.37;47.38;101091.41;5123934;28;20043;-67
2022/07/12 06:46:48;;;;;;;0.10;0.10;;;;;;;25.07;46.97;101102.06;5124057;28;20316;-67
2022/07/12 06:49:14;;;;;;;0.10;0.10;;;;;;;25.35;47.35;101095.09;5124041;28;20027;-67
2022/07/12 06:51:39;;;;;;;0.10;0.10;;;;;;;25.44;46.81;101089.22;5123853;28;20024;-67
2022/07/12 06:54:04;;;;;;;0.20;0.20;;;;;;;25.24;46.58;101088.63;5124049;28;20066;-67
2022/07/12 06:56:30;;;;;;;1.02;0.95;;;;;;;25.05;46.11;101083.56;5123751;28;20036;-67
2022/07/12 06:58:55;;;;;;;0.20;0.20;;;;;;;24.85;46.02;101087.34;5123726;28;20061;-67
2022/07/12 07:01:20;;;;;;;0.65;0.65;;;;;;;24.83;46.23;101083.94;5123992;28;20388;-67
2022/07/12 07:03:46;;;;;;;0.20;0.20;;;;;;;25.06;46.97;101079.09;5123820;28;20019;-67
2022/07/12 07:06:11;;;;;;;0.10;0.10;;;;;;;25.66;46.70;101084.41;5123446;28;20414;-67
2022/07/12 07:08:36;;;;;;;0.60;0.60;;;;;;;26.29;45.78;101081.41;5123665;28;20035;-67
2022/07/12 07:11:02;;;;;;;0.45;0.45;;;;;;;26.46;44.93;101078.53;5123912;28;20062;-67
2022/07/12 07:13:27;;;;;;;0.10;0.10;;;;;;;26.75;45.19;101079.34;5123635;28;20054;-67
2022/07/12 07:15:53;;;;;;;0.10;0.10;;;;;;;27.33;44.81;101076.38;5123813;28;20024;-67
2022/07/12 07:18:18;;;;;;;0.10;0.10;;;;;;;28.18;44.09;101072.19;5123918;28;20019;-67
2022/07/12 07:20:44;;;;;;;0.10;0.10;;;;;;;28.75;42.80;101074.31;5123890;28;20499;-67
2022/07/12 07:23:16;;;;;;;0.20;0.20;;;;;;;29.10;41.34;101061.94;5123947;28;20039;-67
2022/07/12 07:25:42;;;;;;;0.10;0.10;;;;;;;29.36;40.16;101069.75;5123743;28;20043;-67
2022/07/12 07:28:08;;;;;;;3.33;0.73;;;;;;;29.08;39.52;101071.88;5123615;28;20524;-67
2022/07/12 07:33:18;;;;;;;0.10;0.10;;;;;;;27.65;39.81;101077.75;5123712;28;20034;-67
2022/07/12 07:35:43;;;;;;;0.10;0.10;;;;;;;26.92;40.93;101086.19;5123733;28;20308;-67
2022/07/12 07:38:10;;;;;;;0.10;0.10;;;;;;;26.20;41.87;101074.88;5123415;28;20015;-67
2022/07/12 07:40:36;;;;;;;0.30;0.30;;;;;;;25.66;42.84;101064.00;5125933;28;20483;-67
2022/07/12 07:43:01;;;;;;;0.10;0.10;;;;;;;25.11;43.27;101082.34;5109214;28;20091;-69
2022/07/12 07:45:26;;;;;;;0.40;0.40;;;;;;;24.35;44.71;101085.72;5127835;28;20019;-69
2022/07/12 07:47:52;;;;;;;0.10;0.10;;;;;;;23.91;46.12;101086.34;5127244;28;20529;-70
2022/07/12 07:50:17;;;;;;;0.10;0.10;;;;;;;23.32;47.30;101090.25;5127707;28;20049;-71
2022/07/12 07:52:43;;;;;;;0.10;0.10;;;;;;;23.03;47.54;101088.16;5127525;28;20046;-70
2022/07/12 07:55:08;;;;;;;0.10;0.10;;;;;;;22.71;48.06;101091.47;5127426;28;20015;-70
2022/07/12 07:57:34;;;;;;;0.10;0.10;;;;;;;22.36;49.04;101081.66;5127270;28;20016;-70
2022/07/12 07:59:59;;;;;;;0.20;0.20;;;;;;;22.40;49.21;101093.78;5127395;28;20087;-70
2022/07/12 08:02:24;;;;;;;0.10;0.10;;;;;;;22.57;48.65;101086.84;5127347;28;20042;-71
2022/07/12 08:04:50;;;;;;;0.17;0.17;;;;;;;22.65;48.52;101097.91;5127323;28;20076;-70
2022/07/12 08:07:16;;;;;;;0.10;0.10;;;;;;;22.66;49.09;101098.78;5127100;28;20032;-69
2022/07/12 08:09:41;;;;;;;1.30;1.20;;;;;;;22.76;48.84;101099.19;5127106;28;20102;-71
2022/07/12 08:12:07;;;;;;;0.20;0.20;;;;;;;22.99;48.94;101089.22;5126317;28;20332;-70
2022/07/12 08:14:32;;;;;;;0.13;0.13;;;;;;;23.64;48.10;101087.75;5126649;28;20024;-70
2022/07/12 08:16:58;;;;;;;0.30;0.30;;;;;;;24.29;47.57;101087.84;5126773;28;20026;-70
2022/07/12 08:19:23;;;;;;;0.10;0.10;;;;;;;24.72;46.33;101095.19;5126959;28;20027;-70
2022/07/12 08:21:48;;;;;;;0.80;0.80;;;;;;;24.56;45.34;101089.88;5127077;28;20027;-70
2022/07/12 08:24:14;;;;;;;0.20;0.20;;;;;;;24.34;45.66;101099.94;5126897;28;20031;-70
2022/07/12 08:26:39;;;;;;;0.32;0.32;;;;;;;23.75;46.71;101095.97;5107882;28;20050;-70
2022/07/12 08:29:05;;;;;;;0.10;0.10;;;;;;;23.47;47.04;101102.75;5126726;28;20043;-70
2022/07/12 08:31:30;;;;;;;0.10;0.10;;;;;;;23.12;48.04;101106.22;5126791;28;20023;-71
2022/07/12 08:33:56;;;;;;;0.10;0.10;;;;;;;22.75;48.92;101108.03;5126779;28;20027;-72
2022/07/12 08:36:21;;;;;;;0.10;0.10;;;;;;;22.41;49.25;101106.06;5126746;28;20023;-72
2022/07/12 08:38:47;;;;;;;1.50;1.40;;;;;;;22.03;50.36;101117.50;5126411;28;20027;-71
2022/07/12 08:41:16;;;;;;;0.20;0.20;;;;;;;21.75;50.79;101113.44;5126664;28;20028;-71
2022/07/12 08:43:42;;;;;;;0.20;0.20;;;;;;;21.61;51.40;101115.84;5126255;28;20099;-72
2022/07/12 08:46:10;;;;;;;0.20;0.20;;;;;;;21.51;51.67;101110.97;5126426;28;20023;-72
2022/07/12 08:48:37;;;;;;;0.10;0.10;;;;;;;21.38;51.83;101118.56;5126439;28;20485;-70
2022/07/12 08:51:05;;;;;;;0.20;0.20;;;;;;;21.20;52.88;101119.34;5125964;28;20057;-71
2022/07/12 08:53:31;;;;;;;0.20;0.20;;;;;;;20.99;53.82;101114.03;5126420;28;20015;-72
2022/07/12 08:55:57;;;;;;;0.20;0.20;;;;;;;20.90;53.92;101109.94;5126519;28;20019;-72
2022/07/12 08:58:22;;;;;;;0.30;0.30;;;;;;;20.81;54.47;101106.75;5126181;28;20459;-71
2022/07/12 09:00:48;;;;;;;0.20;0.20;;;;;;;20.74;54.16;101100.00;5126542;28;20024;-71
2022/07/12 09:03:14;;;;;;;0.20;0.20;;;;;;;20.75;54.33;101104.34;5126184;28;20083;-71
2022/07/12 09:05:48;;;;;;;0.10;0.10;;;;;;;20.86;54.21;101096.03;5125926;28;20023;-72
2022/07/12 09:08:13;;;;;;;0.20;0.20;;;;;;;20.96;54.52;101093.03;5125847;28;20028;-71
2022/07/12 09:11:00;;;;;;;0.20;0.20;;;;;;;21.04;54.90;101105.00;5126285;28;20034;-72
2022/07/12 09:14:03;;;;;;;0.20;0.20;;;;;;;20.98;56.00;101101.72;5107755;28;20087;-72
2022/07/12 09:16:28;;;;;;;0.20;0.20;;;;;;;21.08;55.19;101102.22;5107592;28;20030;-72
2022/07/12 09:19:16;;;;;;;0.20;0.20;;;;;;;21.41;54.62;101109.63;5125540;28;20027;-71
2022/07/12 09:22:00;;;;;;;0.10;0.10;;;;;;;21.52;54.82;101104.75;5125966;28;20031;-72
2022/07/12 09:24:27;;;;;;;0.20;0.20;;;;;;;21.95;54.41;101109.06;5125971;28;20028;-72
2022/07/12 09:27:05;;;;;;;0.20;0.20;;;;;;;22.26;53.47;101109.44;5125680;28;20066;-72
2022/07/12 09:29:32;;;;;;;0.10;0.10;;;;;;;22.89;53.01;101104.75;5125304;28;20107;-71
2022/07/12 09:37:40;;;;;;;0.10;0.10;;;;;;;25.44;48.58;101096.34;5125709;28;20030;-71
2022/07/12 09:40:07;;;;;;;0.55;0.55;;;;;;;25.80;47.89;101100.38;5125519;28;20482;-71
2022/07/12 09:42:34;;;;;;;0.10;0.10;;;;;;;26.57;47.63;101103.56;5125095;28;20049;-71
2022/07/12 09:45:00;;;;;;;0.10;0.10;;;;;;;27.55;45.46;101093.53;5125679;28;20034;-71
2022/07/12 09:47:26;;;;;;;0.10;0.10;;;;;;;27.69;43.50;101093.44;5125147;28;20051;-70
2022/07/12 09:49:52;;;;;;;0.10;0.10;;;;;;;28.07;43.85;101099.66;5125254;28;20027;-71
2022/07/12 09:52:24;;;;;;;0.85;0.85;;;;;;;28.02;42.58;101096.47;5125398;28;20080;-72
2022/07/12 09:54:54;;;;;;;0.30;0.30;;;;;;;28.23;41.95;101095.06;5125349;28;20478;-71
2022/07/12 09:57:27;;;;;;;0.47;0.45;;;;;;;29.07;41.58;101094.25;5124971;28;20134;-71
2022/07/12 09:59:53;;;;;;;0.10;0.10;;;;;;;29.97;40.75;101074.84;5106895;28;20091;-72
2022/07/12 10:02:20;;;;;;;0.77;0.77;;;;;;;30.33;39.66;101077.34;5125199;28;20121;-70
2022/07/12 10:04:47;;;;;;;0.98;0.88;;;;;;;30.79;38.40;101081.56;5125071;28;20085;-70
2022/07/12 10:07:13;;;;;;;0.10;0.10;;;;;;;31.10;37.89;101079.94;5125208;28;20031;-72
2022/07/12 10:09:41;;;;;;;0.10;0.10;;;;;;;30.65;38.37;101080.03;5125207;28;20020;-71
2022/07/12 10:12:07;;;;;;;0.20;0.20;;;;;;;30.80;38.15;101077.03;5125074;28;20049;-73
2022/07/12 10:14:33;;;;;;;2.72;1.83;;;;;;;31.16;37.77;101069.53;5124452;28;20027;-74
2022/07/12 10:16:59;;;;;;;0.10;0.10;;;;;;;31.41;37.57;101077.28;5124048;28;20521;-75
2022/07/12 10:19:31;;;;;;;0.10;0.10;;;;;;;31.38;37.23;101072.19;5124061;28;20382;-69
2022/07/12 10:21:58;;;;;;;0.10;0.10;;;;;;;31.07;37.17;101073.00;5124238;28;20019;-68
2022/07/12 10:24:33;;;;;;;0.10;0.10;;;;;;;30.97;36.96;101077.44;5124291;28;20020;-67
2022/07/12 10:26:58;;;;;;;0.10;0.10;;;;;;;30.91;36.31;101068.94;5124130;28;20095;-67
2022/07/12 10:29:25;;;;;;;0.10;0.10;;;;;;;30.93;36.53;101066.13;5124310;28;20057;-67
2022/07/12 10:31:51;;;;;;;0.93;0.93;;;;;;;31.00;36.17;101072.69;5124570;28;20243;-67
2022/07/12 10:34:23;;;;;;;5.57;0.90;;;;;;;30.99;36.22;101065.59;5124482;28;20481;-67
2022/07/12 10:36:54;;;;;;;0.10;0.10;;;;;;;30.84;35.55;101067.78;5124335;28;20045;-67
2022/07/12 10:39:24;;;;;;;0.10;0.10;;;;;;;30.03;36.96;101060.97;5124013;28;20023;-66
2022/07/12 10:42:13;;;;;;;0.10;0.10;;;;;;;29.82;37.68;101056.38;5124326;28;20027;-67
2022/07/12 10:44:41;;;;;;;0.10;0.10;;;;;;;29.94;37.26;101054.53;5124007;28;20020;-67
2022/07/12 10:47:08;;;;;;;0.30;0.30;;;;;;;30.14;36.80;101052.06;5124214;28;20024;-67
2022/07/12 10:49:35;;;;;;;0.10;0.10;;;;;;;30.40;36.17;101057.13;5124131;28;20036;-67
2022/07/12 10:52:10;;;;;;;0.10;0.10;;;;;;;30.33;35.19;101051.41;5124077;28;20050;-67
2022/07/12 10:54:50;;;;;;;0.10;0.10;;;;;;;30.39;35.11;101045.56;5124202;28;20080;-67
2022/07/12 10:57:36;;;;;;;0.10;0.10;;;;;;;30.58;35.19;101054.72;5124342;28;20016;-66
2022/07/12 11:00:01;;;;;;;0.10;0.10;;;;;;;30.25;35.45;101049.38;5109650;28;20039;-67
2022/07/12 11:02:27;;;;;;;0.20;0.20;;;;;;;30.47;35.43;101046.72;5124110;28;20436;-67
2022/07/12 11:04:53;;;;;;;0.10;0.10;;;;;;;30.05;36.17;101054.50;5124161;28;20088;-67
2022/07/12 11:07:19;;;;;;;0.10;0.10;;;;;;;29.30;37.48;101054.16;5123956;28;20075;-67
2022/07/12 11:09:44;;;;;;;0.10;0.10;;;;;;;28.72;37.96;101047.84;5123868;28;20074;-67
2022/07/12 11:12:09;;;;;;;0.22;0.22;;;;;;;28.18;38.46;101048.16;5123981;28;20058;-67
2022/07/12 11:14:35;;;;;;;0.17;0.17;;;;;;;27.51;39.05;101039.56;5125614;28;20031;-67
2022/07/12 11:17:01;;;;;;;0.10;0.10;;;;;;;26.94;39.65;101033.66;5130712;28;20015;-67
2022/07/12 11:19:28;;;;;;;0.10;0.10;;;;;;;26.40;40.24;101033.69;5112203;28;20035;-67
2022/07/12 11:21:58;;;;;;;0.10;0.10;;;;;;;26.13;40.67;101037.16;5130774;28;20031;-67
2022/07/12 11:24:31;;;;;;;0.10;0.10;;;;;;;25.80;40.69;101033.06;5130598;28;20519;-67
2022/07/12 11:26:59;;;;;;;0.10;0.10;;;;;;;25.47;41.03;101035.03;5130265;28;20118;-67
2022/07/12 11:29:25;;;;;;;0.10;0.10;;;;;;;25.17;41.47;101028.84;5130506;28;20084;-67
2022/07/12 11:32:04;;;;;;;0.10;0.10;;;;;;;24.87;41.82;101033.19;5130564;28;20103;-68
2022/07/12 11:34:29;;;;;;;0.10;0.10;;;;;;;24.56;42.64;101031.50;5130670;28;20020;-67